createdAt,value
2023-10-10T00:00:56.017Z,98725.75
2023-10-10T00:03:23.288Z,98727.81
2023-10-10T00:05:50.185Z,98726.25
2023-10-10T00:08:19.920Z,98738.06
2023-10-10T00:10:50.303Z,98734.50
2023-10-10T00:13:18.094Z,98733.91
2023-10-10T00:15:51.046Z,98733.34
2023-10-10T00:18:20.846Z,98737.72
2023-10-10T00:21:05.974Z,98736.88
2023-10-10T00:23:39.321Z,98739.50
2023-10-10T00:26:06.772Z,98744.75
2023-10-10T00:28:35.702Z,98741.44
2023-10-10T00:31:09.374Z,98746.78
2023-10-10T00:33:39.471Z,98747.75
2023-10-10T00:36:32.293Z,98749.59
2023-10-10T00:39:19.176Z,98748.22
2023-10-10T00:41:51.898Z,98733.84
2023-10-10T00:44:23.080Z,98740.78
2023-10-10T00:46:56.353Z,98740.03
2023-10-10T00:49:25.947Z,98737.59
2023-10-10T00:51:54.840Z,98741.19
2023-10-10T00:54:26.852Z,98738.63
2023-10-10T00:56:55.566Z,98730.09
2023-10-10T00:59:29.772Z,98725.78
2023-10-10T01:01:56.502Z,98729.28
2023-10-10T01:04:36.556Z,98736.19
2023-10-10T01:07:10.322Z,98728.41
2023-10-10T01:09:52.774Z,98735.28
2023-10-10T01:12:19.302Z,98729.38
2023-10-10T01:14:45.841Z,98726.81
2023-10-10T01:17:13.753Z,98733.66
2023-10-10T01:19:40.428Z,98728.50
2023-10-10T01:22:23.349Z,98727.66
2023-10-10T01:24:54.944Z,98720.78
2023-10-10T01:27:22.910Z,98719.91
2023-10-10T01:30:12.510Z,98718.25
2023-10-10T01:32:40.984Z,98722.63
2023-10-10T01:35:16.984Z,98722.59
2023-10-10T01:37:49.676Z,98726.78
2023-10-10T01:40:17.117Z,98723.34
2023-10-10T01:42:46.427Z,98733.50
2023-10-10T01:45:19.310Z,98731.63
2023-10-10T01:47:57.816Z,98720.44
2023-10-10T01:50:31.863Z,98719.63
2023-10-10T01:52:59.158Z,98718.75
2023-10-10T01:55:26.096Z,98717.03
2023-10-10T01:57:53.494Z,98716.19
2023-10-10T02:00:26.087Z,98715.28
2023-10-10T02:02:57.377Z,98717.03
2023-10-10T02:05:54.536Z,98711.69
2023-10-10T02:08:23.531Z,98710.97
2023-10-10T02:10:51.203Z,98706.66
2023-10-10T02:13:19.413Z,98705.88
2023-10-10T02:15:45.952Z,98712.75
2023-10-10T02:18:19.048Z,98709.31
2023-10-10T02:20:48.139Z,98714.59
2023-10-10T02:23:33.208Z,98715.44
2023-10-10T02:26:23.757Z,98716.31
2023-10-10T02:29:12.759Z,98713.81
2023-10-10T02:31:42.969Z,98723.28
2023-10-10T02:34:11.721Z,98724.06
2023-10-10T02:36:42.123Z,98728.34
2023-10-10T02:39:17.440Z,98734.38
2023-10-10T02:41:50.931Z,98730.91
2023-10-10T02:44:35.735Z,98729.28
2023-10-10T02:47:02.338Z,98726.63
2023-10-10T02:49:28.883Z,98724.13
2023-10-10T02:51:58.986Z,98729.38
2023-10-10T02:54:32.966Z,98727.66
2023-10-10T02:57:28.197Z,98732.75
2023-10-10T03:00:15.388Z,98727.69
2023-10-10T03:02:50.809Z,98727.75
2023-10-10T03:05:18.272Z,98725.25
2023-10-10T03:07:53.437Z,98728.66
2023-10-10T03:10:38.527Z,98731.22
2023-10-10T03:13:14.087Z,98725.94
2023-10-10T03:15:50.230Z,98730.41
2023-10-10T03:18:20.166Z,98725.25
2023-10-10T03:21:06.329Z,98733.16
2023-10-10T03:23:36.487Z,98740.78
2023-10-10T03:26:06.336Z,98734.88
2023-10-10T03:28:42.209Z,98731.44
2023-10-10T03:31:24.564Z,98731.53
2023-10-10T03:34:06.512Z,98735.72
2023-10-10T03:36:41.438Z,98733.16
2023-10-10T03:39:27.871Z,98733.28
2023-10-10T03:42:12.751Z,98732.53
2023-10-10T03:44:57.915Z,98739.47
2023-10-10T03:47:43.381Z,98737.59
2023-10-10T03:50:28.605Z,98738.66
2023-10-10T03:53:13.568Z,98744.69
2023-10-10T03:55:59.014Z,98747.34
2023-10-10T03:58:44.136Z,98742.19
2023-10-10T04:01:29.433Z,98738.78
2023-10-10T04:04:15.564Z,98739.63
2023-10-10T04:07:00.777Z,98734.31
2023-10-10T04:09:45.720Z,98747.06
2023-10-10T04:12:30.716Z,98742.88
2023-10-10T04:15:15.728Z,98748.16
2023-10-10T04:18:00.887Z,98743.94
2023-10-10T04:20:46.384Z,98740.47
2023-10-10T04:23:31.417Z,98741.31
2023-10-10T04:26:23.166Z,98742.19
2023-10-10T04:29:08.452Z,98746.44
2023-10-10T04:31:53.937Z,98742.16
2023-10-10T04:34:39.035Z,98740.34
2023-10-10T04:37:24.164Z,98735.31
2023-10-10T04:40:09.457Z,98749.13
2023-10-10T04:42:54.381Z,98737.06
2023-10-10T04:45:39.635Z,98735.25
2023-10-10T04:48:24.975Z,98734.44
2023-10-10T04:51:11.339Z,98739.53
2023-10-10T04:53:56.451Z,98733.56
2023-10-10T04:56:41.800Z,98734.38
2023-10-10T04:59:37.541Z,98740.34
2023-10-10T05:02:22.655Z,98738.63
2023-10-10T05:05:07.834Z,98739.44
2023-10-10T05:07:53.093Z,98742.16
2023-10-10T05:10:58.005Z,98749.78
2023-10-10T05:13:43.213Z,98751.72
2023-10-10T05:16:28.274Z,98748.25
2023-10-10T05:19:17.423Z,98751.75
2023-10-10T05:22:05.137Z,98752.66
2023-10-10T05:24:36.981Z,98759.63
2023-10-10T05:27:03.512Z,98751.91
2023-10-10T05:29:34.643Z,98749.38
2023-10-10T05:32:09.298Z,98753.69
2023-10-10T05:34:36.214Z,98751.16
2023-10-10T05:37:02.760Z,98760.56
2023-10-10T05:39:33.726Z,98752.69
2023-10-10T05:42:02.490Z,98755.25
2023-10-10T05:44:30.572Z,98751.88
2023-10-10T05:46:57.137Z,98748.50
2023-10-10T05:49:23.736Z,98752.88
2023-10-10T05:51:50.361Z,98757.16
2023-10-10T05:54:20.540Z,98754.53
2023-10-10T05:56:47.921Z,98761.31
2023-10-10T05:59:14.809Z,98759.56
2023-10-10T06:01:41.583Z,98761.28
2023-10-10T06:04:09.122Z,98762.09
2023-10-10T06:06:37.349Z,98765.56
2023-10-10T06:09:06.480Z,98767.22
2023-10-10T06:11:35.552Z,98770.47
2023-10-10T06:14:02.887Z,98762.56
2023-10-10T06:16:29.732Z,98769.25
2023-10-10T06:18:56.330Z,98764.53
2023-10-10T06:21:22.996Z,98767.63
2023-10-10T06:23:51.018Z,98765.50
2023-10-10T06:26:22.342Z,98770.88
2023-10-10T06:28:55.481Z,98762.19
2023-10-10T06:31:35.623Z,98765.56
2023-10-10T06:34:20.355Z,98764.78
2023-10-10T06:36:50.714Z,98770.75
2023-10-10T06:39:17.357Z,98776.81
2023-10-10T06:41:48.524Z,98777.19
2023-10-10T06:44:16.454Z,98780.22
2023-10-10T06:46:49.191Z,98790.09
2023-10-10T06:49:16.248Z,98792.97
2023-10-10T06:51:43.206Z,98795.75
2023-10-10T06:54:20.777Z,98797.25
2023-10-10T06:57:00.257Z,98789.47
2023-10-10T06:59:30.791Z,98790.16
2023-10-10T07:02:13.826Z,98800.41
2023-10-10T07:04:41.123Z,98802.38
2023-10-10T07:07:10.167Z,98798.22
2023-10-10T07:09:38.466Z,98809.28
2023-10-10T07:12:11.634Z,98805.34
2023-10-10T07:14:45.251Z,98811.53
2023-10-10T07:17:13.167Z,98811.25
2023-10-10T07:20:00.539Z,98811.19
2023-10-10T07:22:28.665Z,98812.59
2023-10-10T07:25:08.328Z,98805.47
2023-10-10T07:27:40.979Z,98806.25
2023-10-10T07:30:18.678Z,98808.34
2023-10-10T07:32:50.224Z,98810.25
2023-10-10T07:35:17.853Z,98820.97
2023-10-10T07:37:45.456Z,98826.41
2023-10-10T07:40:21.324Z,98832.22
2023-10-10T07:42:51.705Z,98831.28
2023-10-10T07:45:28.725Z,98834.59
2023-10-10T07:48:01.168Z,98833.78
2023-10-10T07:50:35.867Z,98832.56
2023-10-10T07:53:14.142Z,98834.63
2023-10-10T07:55:53.896Z,98838.00
2023-10-10T07:58:34.171Z,98833.31
2023-10-10T08:01:11.180Z,98829.88
2023-10-10T08:03:38.382Z,98836.13
2023-10-10T08:06:09.706Z,98830.44
2023-10-10T08:08:37.414Z,98832.78
2023-10-10T08:11:13.768Z,98831.56
2023-10-10T08:13:49.830Z,98837.25
2023-10-10T08:16:30.528Z,98839.31
2023-10-10T08:19:05.847Z,98833.13
2023-10-10T08:21:40.574Z,98831.63
2023-10-10T08:24:08.673Z,98839.13
2023-10-10T08:26:42.116Z,98841.44
2023-10-10T08:29:13.446Z,98841.81
2023-10-10T08:34:23.529Z,98848.06
2023-10-10T08:37:16.560Z,98841.94
2023-10-10T08:39:43.179Z,98844.09
2023-10-10T08:42:15.878Z,98836.75
2023-10-10T08:44:42.786Z,98831.06
2023-10-10T08:47:20.270Z,98829.44
2023-10-10T08:49:48.915Z,98825.44
2023-10-10T08:52:17.652Z,98818.59
2023-10-10T08:54:45.863Z,98826.13
2023-10-10T08:57:12.590Z,98821.44
2023-10-10T08:59:43.537Z,98821.22
2023-10-10T09:02:17.319Z,98818.91
2023-10-10T09:04:44.918Z,98828.59
2023-10-10T09:07:21.661Z,98822.28
2023-10-10T09:09:59.455Z,98822.13
2023-10-10T09:12:25.963Z,98824.44
2023-10-10T09:14:52.872Z,98827.75
2023-10-10T09:17:30.191Z,98826.41
2023-10-10T09:20:00.172Z,98823.25
2023-10-10T09:22:35.146Z,98822.19
2023-10-10T09:25:19.282Z,98824.69
2023-10-10T09:28:05.535Z,98823.94
2023-10-10T09:30:33.796Z,98830.06
2023-10-10T09:33:36.565Z,98823.13
2023-10-10T09:36:11.121Z,98813.03
2023-10-10T09:38:45.137Z,98820.41
2023-10-10T09:41:36.973Z,98819.75
2023-10-10T09:44:24.750Z,98811.81
2023-10-10T09:47:03.286Z,98815.28
2023-10-10T09:49:50.767Z,98807.44
2023-10-10T09:52:40.413Z,98816.53
2023-10-10T09:55:13.923Z,98808.38
2023-10-10T09:57:41.493Z,98810.91
2023-10-10T10:00:27.307Z,98807.84
2023-10-10T10:02:59.192Z,98813.91
2023-10-10T10:05:30.477Z,98809.81
2023-10-10T10:08:07.935Z,98803.94
2023-10-10T10:11:12.959Z,98805.31
2023-10-10T10:14:08.529Z,98806.09
2023-10-10T10:16:40.309Z,98802.72
2023-10-10T10:19:18.513Z,98800.25
2023-10-10T10:21:54.605Z,98804.72
2023-10-10T10:24:31.372Z,98803.31
2023-10-10T10:27:14.936Z,98799.06
2023-10-10T10:29:50.147Z,98802.28
2023-10-10T10:32:18.269Z,98809.72
2023-10-10T10:34:49.833Z,98811.34
2023-10-10T10:37:24.834Z,98805.50
2023-10-10T10:40:13.204Z,98805.59
2023-10-10T10:42:53.159Z,98809.34
2023-10-10T10:45:36.785Z,98798.84
2023-10-10T10:48:08.746Z,98797.91
2023-10-10T10:50:44.340Z,98799.53
2023-10-10T10:53:32.767Z,98792.84
2023-10-10T10:56:18.595Z,98785.97
2023-10-10T10:58:57.728Z,98782.66
2023-10-10T11:01:25.208Z,98779.72
2023-10-10T11:03:55.205Z,98771.75
2023-10-10T11:06:25.306Z,98772.31
2023-10-10T11:11:28.848Z,98771.84
2023-10-10T11:14:01.652Z,98768.09
2023-10-10T11:16:38.689Z,98769.56
2023-10-10T11:19:25.624Z,98757.81
2023-10-10T11:21:55.017Z,98760.31
2023-10-10T11:24:27.163Z,98745.22
2023-10-10T11:27:08.686Z,98753.38
2023-10-10T11:30:11.910Z,98748.13
2023-10-10T11:32:47.606Z,98749.81
2023-10-10T11:35:26.957Z,98752.69
2023-10-10T11:38:17.479Z,98741.44
2023-10-10T11:40:48.911Z,98733.56
2023-10-10T11:43:18.634Z,98727.16
2023-10-10T11:45:52.831Z,98727.38
2023-10-10T11:48:19.934Z,98724.22
2023-10-10T11:50:51.512Z,98722.66
2023-10-10T11:53:25.383Z,98724.31
2023-10-10T11:55:55.825Z,98731.13
2023-10-10T11:58:36.864Z,98730.22
2023-10-10T12:01:08.138Z,98714.34
2023-10-10T12:03:35.566Z,98715.09
2023-10-10T12:06:02.201Z,98715.00
2023-10-10T12:08:28.632Z,98710.03
2023-10-10T12:11:13.571Z,98707.31
2023-10-10T12:13:40.263Z,98702.78
2023-10-10T12:16:14.003Z,98710.97
2023-10-10T12:18:51.673Z,98696.69
2023-10-10T12:21:22.462Z,98702.59
2023-10-10T12:24:00.441Z,98697.84
2023-10-10T12:26:30.741Z,98693.63
2023-10-10T12:28:57.773Z,98687.66
2023-10-10T12:31:24.424Z,98690.50
2023-10-10T12:33:54.240Z,98689.78
2023-10-10T12:36:24.187Z,98683.78
2023-10-10T12:38:50.812Z,98682.00
2023-10-10T12:41:22.242Z,98680.63
2023-10-10T12:43:50.377Z,98680.22
2023-10-10T12:46:18.584Z,98676.13
2023-10-10T12:48:47.520Z,98670.88
2023-10-10T12:51:14.183Z,98664.16
2023-10-10T12:53:40.943Z,98669.72
2023-10-10T12:56:12.373Z,98659.06
2023-10-10T12:58:44.559Z,98655.00
2023-10-10T13:01:16.943Z,98651.72
2023-10-10T13:03:49.114Z,98661.13
2023-10-10T13:06:18.680Z,98660.91
2023-10-10T13:09:17.436Z,98660.59
2023-10-10T13:11:47.216Z,98656.88
2023-10-10T13:14:19.957Z,98655.00
2023-10-10T13:16:46.482Z,98655.66
2023-10-10T13:19:13.544Z,98650.41
2023-10-10T13:21:42.212Z,98650.09
2023-10-10T13:24:16.705Z,98644.09
2023-10-10T13:26:51.263Z,98643.75
2023-10-10T13:29:21.032Z,98640.59
2023-10-10T13:31:47.997Z,98644.38
2023-10-10T13:34:23.647Z,98635.63
2023-10-10T13:36:51.053Z,98633.13
2023-10-10T13:39:34.354Z,98634.69
2023-10-10T13:42:01.316Z,98628.50
2023-10-10T13:44:27.975Z,98628.09
2023-10-10T13:46:55.966Z,98627.28
2023-10-10T13:49:22.439Z,98629.72
2023-10-10T13:51:53.406Z,98627.94
2023-10-10T13:54:22.222Z,98630.56
2023-10-10T13:56:49.947Z,98624.63
2023-10-10T13:59:18.343Z,98629.50
2023-10-10T14:01:45.323Z,98623.19
2023-10-10T14:04:28.406Z,98624.06
2023-10-10T14:06:55.399Z,98622.06
2023-10-10T14:09:26.273Z,98620.75
2023-10-10T14:12:02.299Z,98610.81
2023-10-10T14:14:32.004Z,98613.34
2023-10-10T14:16:58.893Z,98604.75
2023-10-10T14:19:29.821Z,98607.16
2023-10-10T14:21:56.320Z,98605.81
2023-10-10T14:24:22.933Z,98604.03
2023-10-10T14:26:50.497Z,98604.22
2023-10-10T14:29:17.945Z,98597.88
2023-10-10T14:31:57.218Z,98595.75
2023-10-10T14:34:26.411Z,98596.47
2023-10-10T14:36:54.686Z,98597.22
2023-10-10T14:39:45.422Z,98594.81
2023-10-10T14:42:14.949Z,98596.56
2023-10-10T14:44:42.123Z,98601.59
2023-10-10T14:47:11.019Z,98594.06
2023-10-10T14:49:39.703Z,98599.78
2023-10-10T14:52:07.546Z,98589.75
2023-10-10T14:54:50.112Z,98591.09
2023-10-10T14:57:25.478Z,98596.63
2023-10-10T14:59:56.779Z,98598.75
2023-10-10T15:02:27.515Z,98593.72
2023-10-10T15:04:55.816Z,98584.72
2023-10-10T15:07:22.467Z,98587.91
2023-10-10T15:09:49.064Z,98587.94
2023-10-10T15:12:15.561Z,98594.47
2023-10-10T15:14:44.082Z,98596.38
2023-10-10T15:17:11.290Z,98592.59
2023-10-10T15:19:37.902Z,98592.09
2023-10-10T15:22:05.434Z,98592.03
2023-10-10T15:24:34.303Z,98593.28
2023-10-10T15:27:01.294Z,98599.66
2023-10-10T15:29:28.358Z,98597.69
2023-10-10T15:31:57.286Z,98595.13
2023-10-10T15:34:24.743Z,98603.31
2023-10-10T15:36:51.209Z,98600.19
2023-10-10T15:39:18.214Z,98602.06
2023-10-10T15:41:45.989Z,98610.25
2023-10-10T15:44:14.028Z,98607.00
2023-10-10T15:46:44.045Z,98611.50
2023-10-10T15:49:29.025Z,98608.38
2023-10-10T15:52:04.746Z,98616.66
2023-10-10T15:54:35.381Z,98619.03
2023-10-10T15:57:07.183Z,98622.78
2023-10-10T15:59:34.018Z,98620.91
2023-10-10T16:02:00.543Z,98625.59
2023-10-10T16:04:31.823Z,98628.16
2023-10-10T16:06:59.478Z,98632.44
2023-10-10T16:09:31.620Z,98630.38
2023-10-10T16:12:01.036Z,98634.94
2023-10-10T16:14:27.743Z,98632.81
2023-10-10T16:16:54.398Z,98629.94
2023-10-10T16:19:22.714Z,98632.56
2023-10-10T16:21:54.279Z,98631.72
2023-10-10T16:24:20.844Z,98631.38
2023-10-10T16:26:59.484Z,98632.84
2023-10-10T16:29:36.093Z,98638.13
2023-10-10T16:32:18.398Z,98640.72
2023-10-10T16:34:45.071Z,98632.50
2023-10-10T16:37:15.556Z,98636.25
2023-10-10T16:39:47.614Z,98636.97
2023-10-10T16:42:16.416Z,98631.56
2023-10-10T16:44:45.896Z,98630.66
2023-10-10T16:47:17.362Z,98636.63
2023-10-10T16:49:43.846Z,98634.13
2023-10-10T16:52:10.301Z,98636.63
2023-10-10T16:54:36.765Z,98638.91
2023-10-10T16:57:06.662Z,98642.34
2023-10-10T16:59:33.374Z,98639.78
2023-10-10T17:02:00.532Z,98640.50
2023-10-10T17:04:27.213Z,98653.63
2023-10-10T17:06:53.758Z,98648.66
2023-10-10T17:09:20.290Z,98651.28
2023-10-10T17:11:51.671Z,98654.47
2023-10-10T17:14:20.054Z,98652.31
2023-10-10T17:16:46.686Z,98653.06
2023-10-10T17:19:17.960Z,98655.34
2023-10-10T17:21:48.722Z,98661.97
2023-10-10T17:24:16.926Z,98659.91
2023-10-10T17:26:44.909Z,98659.22
2023-10-10T17:29:14.765Z,98658.25
2023-10-10T17:31:41.482Z,98659.81
2023-10-10T17:34:08.477Z,98653.13
2023-10-10T17:36:37.568Z,98657.63
2023-10-10T17:39:05.660Z,98649.38
2023-10-10T17:41:36.173Z,98651.28
2023-10-10T17:44:10.077Z,98648.16
2023-10-10T17:46:37.229Z,98651.88
2023-10-10T17:49:05.942Z,98653.97
2023-10-10T17:51:35.600Z,98653.44
2023-10-10T17:54:03.557Z,98654.53
2023-10-10T17:56:30.290Z,98648.78
2023-10-10T17:58:56.784Z,98649.88
2023-10-10T18:01:23.652Z,98651.88
2023-10-10T18:03:55.419Z,98654.66
2023-10-10T18:06:24.485Z,98653.09
2023-10-10T18:09:02.377Z,98654.22
2023-10-10T18:11:33.243Z,98650.91
2023-10-10T18:13:59.981Z,98652.19
2023-10-10T18:16:26.699Z,98653.31
2023-10-10T18:18:53.927Z,98651.72
2023-10-10T18:21:21.517Z,98657.28
2023-10-10T18:23:48.511Z,98653.91
2023-10-10T18:26:17.280Z,98650.72
2023-10-10T18:28:44.805Z,98647.53
2023-10-10T18:31:18.812Z,98654.63
2023-10-10T18:33:45.887Z,98653.84
2023-10-10T18:36:12.852Z,98656.66
2023-10-10T18:38:39.830Z,98656.97
2023-10-10T18:41:06.703Z,98651.72
2023-10-10T18:43:33.592Z,98650.13
2023-10-10T18:46:06.883Z,98647.84
2023-10-10T18:48:40.393Z,98648.78
2023-10-10T18:51:14.467Z,98648.09
2023-10-10T18:53:41.871Z,98647.44
2023-10-10T18:56:10.323Z,98644.09
2023-10-10T18:58:42.683Z,98646.09
2023-10-10T19:01:12.709Z,98644.88
2023-10-10T19:03:47.938Z,98653.56
2023-10-10T19:06:21.239Z,98654.69
2023-10-10T19:08:52.605Z,98653.97
2023-10-10T19:11:23.968Z,98653.44
2023-10-10T19:13:50.821Z,98643.31
2023-10-10T19:16:18.204Z,98651.94
2023-10-10T19:18:57.170Z,98654.63
2023-10-10T19:21:23.755Z,98645.97
2023-10-10T19:23:53.937Z,98652.91
2023-10-10T19:26:36.520Z,98644.25
2023-10-10T19:29:06.375Z,98657.34
2023-10-10T19:31:39.940Z,98662.91
2023-10-10T19:34:10.735Z,98652.59
2023-10-10T19:36:37.270Z,98652.06
2023-10-10T19:39:11.276Z,98647.94
2023-10-10T19:41:38.566Z,98653.97
2023-10-10T19:44:05.485Z,98647.25
2023-10-10T19:46:31.986Z,98652.47
2023-10-10T19:49:02.097Z,98649.00
2023-10-10T19:51:28.825Z,98652.69
2023-10-10T19:53:55.381Z,98653.03
2023-10-10T19:56:22.403Z,98651.63
2023-10-10T19:58:49.810Z,98651.69
2023-10-10T20:01:19.490Z,98641.34
2023-10-10T20:03:47.057Z,98649.97
2023-10-10T20:06:23.352Z,98646.56
2023-10-10T20:08:50.540Z,98653.47
2023-10-10T20:11:17.475Z,98651.88
2023-10-10T20:13:44.146Z,98649.19
2023-10-10T20:16:16.046Z,98653.28
2023-10-10T20:18:45.401Z,98646.41
2023-10-10T20:21:13.553Z,98640.56
2023-10-10T20:23:43.869Z,98647.50
2023-10-10T20:26:20.018Z,98639.94
2023-10-10T20:28:48.821Z,98640.88
2023-10-10T20:31:18.118Z,98640.97
2023-10-10T20:33:46.111Z,98648.28
2023-10-10T20:36:14.684Z,98638.75
2023-10-10T20:38:45.050Z,98644.16
2023-10-10T20:41:13.209Z,98638.13
2023-10-10T20:43:41.424Z,98636.59
2023-10-10T20:46:11.298Z,98648.91
2023-10-10T20:48:38.106Z,98637.78
2023-10-10T20:51:05.135Z,98640.41
2023-10-10T20:53:32.007Z,98632.75
2023-10-10T20:55:58.846Z,98635.19
2023-10-10T20:58:25.380Z,98641.47
2023-10-10T21:00:52.500Z,98638.06
2023-10-10T21:03:19.253Z,98634.41
2023-10-10T21:05:45.924Z,98636.31
2023-10-10T21:08:18.557Z,98632.84
2023-10-10T21:10:45.389Z,98636.41
2023-10-10T21:13:14.170Z,98639.63
2023-10-10T21:15:42.003Z,98645.03
2023-10-10T21:18:09.448Z,98634.59
2023-10-10T21:20:51.869Z,98633.94
2023-10-10T21:23:24.598Z,98632.25
2023-10-10T21:25:51.077Z,98625.38
2023-10-10T21:28:20.657Z,98621.09
2023-10-10T21:30:47.128Z,98622.03
2023-10-10T21:33:15.356Z,98625.44
2023-10-10T21:35:42.055Z,98619.28
2023-10-10T21:38:09.072Z,98619.19
2023-10-10T21:40:35.566Z,98626.03
2023-10-10T21:43:02.007Z,98627.03
2023-10-10T21:45:33.264Z,98622.00
2023-10-10T21:48:00.873Z,98625.50
2023-10-10T21:50:27.541Z,98618.00
2023-10-10T21:52:57.040Z,98621.63
2023-10-10T21:55:23.660Z,98620.06
2023-10-10T21:57:58.205Z,98621.69
2023-10-10T22:00:32.297Z,98617.50
2023-10-10T22:03:06.366Z,98614.03
2023-10-10T22:05:34.031Z,98622.09
2023-10-10T22:08:26.576Z,98619.53
2023-10-10T22:10:55.457Z,98619.56
2023-10-10T22:13:23.339Z,98615.50
2023-10-10T22:15:49.983Z,98612.22
2023-10-10T22:18:16.497Z,98619.97
2023-10-10T22:20:43.433Z,98614.03
2023-10-10T22:23:09.996Z,98612.41
2023-10-10T22:25:37.836Z,98613.97
2023-10-10T22:28:05.539Z,98605.34
2023-10-10T22:30:39.729Z,98601.81
2023-10-10T22:33:11.224Z,98597.16
2023-10-10T22:35:38.554Z,98596.88
2023-10-10T22:38:06.848Z,98599.88
2023-10-10T22:40:34.547Z,98595.22
2023-10-10T22:43:03.549Z,98595.66
2023-10-10T22:45:35.792Z,98603.88
2023-10-10T22:48:04.512Z,98597.47
2023-10-10T22:50:31.929Z,98598.72
2023-10-10T22:53:01.733Z,98597.72
2023-10-10T22:55:36.080Z,98591.63
2023-10-10T22:58:07.627Z,98593.38
2023-10-10T23:00:37.997Z,98592.44
2023-10-10T23:03:08.232Z,98594.16
2023-10-10T23:05:34.808Z,98598.31
2023-10-10T23:08:02.683Z,98592.84
2023-10-10T23:10:34.312Z,98600.50
2023-10-10T23:13:03.649Z,98600.75
2023-10-10T23:15:30.609Z,98594.63
2023-10-10T23:17:59.345Z,98598.19
2023-10-10T23:20:27.904Z,98598.28
2023-10-10T23:22:55.944Z,98594.03
2023-10-10T23:25:22.482Z,98590.53
2023-10-10T23:27:49.251Z,98589.72
2023-10-10T23:30:18.021Z,98588.72
2023-10-10T23:32:45.105Z,98585.72
2023-10-10T23:35:12.351Z,98584.16
2023-10-10T23:37:39.948Z,98586.03
2023-10-10T23:40:25.937Z,98590.53
2023-10-10T23:42:55.535Z,98589.13
2023-10-10T23:45:25.371Z,98597.38
2023-10-10T23:47:56.998Z,98596.97
2023-10-10T23:50:25.099Z,98589.50
2023-10-10T23:52:53.165Z,98595.16
2023-10-10T23:55:20.876Z,98596.41
2023-10-10T23:57:48.876Z,98595.88
